createdAt,value
2022-07-29T00:01:57.971Z,22
2022-07-29T00:07:00.604Z,22
2022-07-29T00:12:04.745Z,22.1
2022-07-29T00:17:07.546Z,22.1
2022-07-29T00:22:10.833Z,22.2
2022-07-29T00:27:13.216Z,22.1
2022-07-29T00:32:16.089Z,22.3
2022-07-29T00:37:18.746Z,22.2
2022-07-29T00:42:21.844Z,22.1
2022-07-29T00:47:24.700Z,22.1
2022-07-29T00:52:27.198Z,22.1
2022-07-29T00:57:29.961Z,22.1
2022-07-29T01:02:33.283Z,22.1
2022-07-29T01:07:35.839Z,22.1
2022-07-29T01:12:38.207Z,22
2022-07-29T01:17:53.945Z,21.9
2022-07-29T01:22:46.367Z,21.9
2022-07-29T01:27:49.452Z,21.8
2022-07-29T01:32:52.820Z,21.8
2022-07-29T01:37:56.652Z,21.7
2022-07-29T01:42:59.708Z,21.7
2022-07-29T01:48:02.669Z,21.7
2022-07-29T01:53:05.281Z,21.7
2022-07-29T01:58:07.866Z,21.6
2022-07-29T02:08:11.097Z,21.6
2022-07-29T02:13:13.350Z,21.6
2022-07-29T02:18:16.082Z,21.5
2022-07-29T02:23:18.421Z,21.5
2022-07-29T02:28:21.253Z,21.3
2022-07-29T02:33:24.006Z,21.2
2022-07-29T02:38:26.806Z,21.2
2022-07-29T02:43:29.110Z,21.1
2022-07-29T02:48:31.971Z,21.2
2022-07-29T02:53:34.822Z,21.2
2022-07-29T02:58:37.779Z,21.2
2022-07-29T03:03:40.713Z,21.1
2022-07-29T03:08:44.114Z,21.1
2022-07-29T03:13:46.419Z,21.1
2022-07-29T03:18:49.094Z,21
2022-07-29T03:23:51.354Z,20.9
2022-07-29T03:28:53.722Z,20.9
2022-07-29T03:33:56.942Z,20.7
2022-07-29T03:38:59.182Z,20.7
2022-07-29T03:44:01.829Z,20.6
2022-07-29T03:49:04.751Z,20.7
2022-07-29T03:54:12.062Z,20.7
2022-07-29T03:59:14.700Z,20.7
2022-07-29T04:04:18.584Z,20.9
2022-07-29T04:09:21.709Z,20.9
2022-07-29T04:14:24.594Z,21.4
2022-07-29T04:19:26.869Z,21.4
2022-07-29T04:24:29.546Z,22.1
2022-07-29T04:29:32.206Z,22.1
2022-07-29T04:34:34.815Z,22.6
2022-07-29T04:39:37.098Z,22.6
2022-07-29T04:44:44.312Z,22.7
2022-07-29T04:49:48.076Z,22.7
2022-07-29T04:54:50.540Z,22.6
2022-07-29T04:59:53.582Z,22.8
2022-07-29T05:04:56.254Z,22.8
2022-07-29T05:09:58.667Z,23.3
2022-07-29T05:15:01.162Z,23.5
2022-07-29T05:20:06.099Z,23.9
2022-07-29T05:25:11.336Z,24.1
2022-07-29T05:30:15.514Z,24.2
2022-07-29T05:35:18.807Z,24.2
2022-07-29T05:40:21.590Z,24.4
2022-07-29T05:45:23.999Z,24.3
2022-07-29T05:50:27.086Z,24.7
2022-07-29T05:55:29.831Z,25.9
2022-07-29T06:00:32.509Z,25.9
2022-07-29T06:05:35.384Z,26.3
2022-07-29T06:10:38.179Z,26.5
2022-07-29T06:15:40.913Z,26.8
2022-07-29T06:20:43.363Z,26.7
2022-07-29T06:25:45.892Z,27.2
2022-07-29T06:30:48.731Z,27.8
2022-07-29T06:35:57.184Z,28.6
2022-07-29T06:40:59.688Z,28.6
2022-07-29T06:46:03.067Z,29.2
2022-07-29T06:51:05.739Z,29.2
2022-07-29T06:56:08.375Z,28.8
2022-07-29T07:01:14.962Z,29.8
2022-07-29T07:06:17.481Z,29.7
2022-07-29T07:11:20.092Z,29.8
2022-07-29T07:16:22.936Z,30.6
2022-07-29T07:21:25.540Z,30.5
2022-07-29T07:26:32.794Z,31.3
2022-07-29T07:31:36.755Z,31.6
2022-07-29T07:36:40.336Z,32.3
2022-07-29T07:41:42.788Z,32.2
2022-07-29T07:46:47.025Z,32.6
2022-07-29T07:51:52.836Z,32.6
2022-07-29T07:56:55.432Z,32.6
2022-07-29T08:01:59.297Z,33.1
2022-07-29T08:07:02.283Z,33.3
2022-07-29T08:12:04.886Z,33.2
2022-07-29T08:17:07.352Z,33.5
2022-07-29T08:22:09.851Z,32.7
2022-07-29T08:27:45.002Z,32.2
2022-07-29T08:32:55.578Z,33.7
2022-07-29T08:37:19.542Z,34
2022-07-29T08:42:21.891Z,34.1
2022-07-29T08:47:24.206Z,35
2022-07-29T08:52:28.004Z,33.7
2022-07-29T08:57:34.519Z,33.5
2022-07-29T09:02:40.123Z,34.2
2022-07-29T09:07:43.358Z,36.5
2022-07-29T09:12:46.018Z,36.5
2022-07-29T09:17:50.724Z,37
2022-07-29T09:22:53.269Z,36.2
2022-07-29T09:24:08.495Z,36.8
2022-07-29T09:29:13.497Z,37.1
2022-07-29T09:34:15.975Z,37.1
2022-07-29T09:39:23.299Z,39.1
2022-07-29T09:44:25.635Z,39.1
2022-07-29T09:49:28.444Z,37.4
2022-07-29T09:55:42.146Z,39
2022-07-29T10:00:45.556Z,38.6
2022-07-29T10:05:48.045Z,38.5
2022-07-29T10:10:50.421Z,39.2
2022-07-29T10:15:53.297Z,37.3
2022-07-29T10:20:55.700Z,37.3
2022-07-29T10:25:58.458Z,39.9
2022-07-29T10:31:01.907Z,40.5
2022-07-29T10:36:04.310Z,40.4
2022-07-29T10:41:10.712Z,38.8
2022-07-29T10:46:12.881Z,39.6
2022-07-29T10:51:20.597Z,40.3
2022-07-29T10:56:27.326Z,40.1
2022-07-29T11:01:49.407Z,40.7
2022-07-29T11:06:44.928Z,40.1
2022-07-29T11:11:52.818Z,37.7
2022-07-29T11:16:48.207Z,36.7
2022-07-29T11:21:59.817Z,38.8
2022-07-29T11:26:55.426Z,38.4
2022-07-29T11:31:55.801Z,38.4
2022-07-29T11:37:00.179Z,40.5
2022-07-29T11:42:16.017Z,40.1
2022-07-29T11:47:10.101Z,40.1
2022-07-29T11:52:14.811Z,39.5
2022-07-29T11:57:18.298Z,39.9
2022-07-29T12:02:44.078Z,40.3
2022-07-29T12:07:37.573Z,39.8
2022-07-29T12:12:40.858Z,40
2022-07-29T12:17:43.663Z,40.3
2022-07-29T12:22:48.219Z,39.1
2022-07-29T12:27:54.031Z,38.7
2022-07-29T12:32:58.695Z,38.7
2022-07-29T12:38:02.714Z,37.5
2022-07-29T12:43:05.104Z,37.4
2022-07-29T12:48:08.265Z,37.7
2022-07-29T12:53:11.705Z,37.6
2022-07-29T12:58:14.568Z,36.4
2022-07-29T13:03:21.802Z,35.1
2022-07-29T13:08:26.611Z,35
2022-07-29T13:13:30.968Z,35.6
2022-07-29T13:18:34.373Z,35.6
2022-07-29T13:23:40.417Z,35.2
2022-07-29T13:28:46.293Z,35.4
2022-07-29T13:33:48.801Z,35.3
2022-07-29T13:38:51.210Z,35.8
2022-07-29T13:43:53.919Z,36.3
2022-07-29T13:48:57.443Z,36.6
2022-07-29T13:54:00.464Z,36.3
2022-07-29T13:59:04.305Z,36.3
2022-07-29T14:04:06.983Z,36.3
2022-07-29T14:09:09.730Z,36.2
2022-07-29T14:14:12.074Z,35.6
2022-07-29T14:19:14.387Z,35.6
2022-07-29T14:24:24.988Z,36.2
2022-07-29T14:29:18.690Z,36.5
2022-07-29T14:34:21.205Z,36.5
2022-07-29T14:39:25.712Z,35.2
2022-07-29T14:44:24.451Z,35.3
2022-07-29T14:49:27.187Z,35.1
2022-07-29T14:54:30.292Z,35.1
2022-07-29T14:59:32.541Z,35
2022-07-29T15:04:34.844Z,34.6
2022-07-29T15:09:51.048Z,33.9
2022-07-29T15:14:40.042Z,34.2
2022-07-29T15:19:47.121Z,34.5
2022-07-29T15:24:49.912Z,34
2022-07-29T15:29:53.167Z,33.7
2022-07-29T15:34:55.482Z,33.7
2022-07-29T15:40:02.446Z,33.8
2022-07-29T15:45:05.169Z,34
2022-07-29T15:50:07.476Z,34
2022-07-29T15:55:09.758Z,33.9
2022-07-29T16:00:12.308Z,33.5
2022-07-29T16:05:14.589Z,33.4
2022-07-29T16:10:16.858Z,33.2
2022-07-29T16:15:19.498Z,32.9
2022-07-29T16:20:24.078Z,32.9
2022-07-29T16:26:01.332Z,32.6
2022-07-29T16:30:34.006Z,32.6
2022-07-29T16:35:42.178Z,32.4
2022-07-29T16:40:44.769Z,32.5
2022-07-29T16:45:48.705Z,32.3
2022-07-29T16:50:51.254Z,32.3
2022-07-29T16:55:55.176Z,32.3
2022-07-29T17:00:58.042Z,32.3
2022-07-29T17:06:00.711Z,32.3
2022-07-29T17:11:03.318Z,32.1
2022-07-29T17:16:06.029Z,32
2022-07-29T17:21:08.451Z,32
2022-07-29T17:26:11.529Z,31.9
2022-07-29T17:31:14.657Z,31.8
2022-07-29T17:36:17.186Z,31.8
2022-07-29T17:41:19.785Z,31.7
2022-07-29T17:46:22.998Z,31.6
2022-07-29T17:51:25.597Z,31.5
2022-07-29T17:56:27.890Z,31.5
2022-07-29T18:01:31.706Z,31.3
2022-07-29T18:06:34.187Z,31.2
2022-07-29T18:11:36.607Z,31
2022-07-29T18:16:46.693Z,30.6
2022-07-29T18:22:03.348Z,30.4
2022-07-29T18:26:59.707Z,30.2
2022-07-29T18:32:02.830Z,30.2
2022-07-29T18:37:05.381Z,29.8
2022-07-29T18:42:07.951Z,29.8
2022-07-29T18:47:15.451Z,29.4
2022-07-29T18:52:19.393Z,29.3
2022-07-29T18:57:58.556Z,29.2
2022-07-29T19:02:31.453Z,29
2022-07-29T19:07:34.484Z,28.9
2022-07-29T19:12:37.247Z,28.8
2022-07-29T19:17:41.774Z,28.6
2022-07-29T19:22:44.858Z,28.5
2022-07-29T19:27:47.277Z,28.4
2022-07-29T19:32:51.017Z,28.2
2022-07-29T19:37:54.972Z,28
2022-07-29T19:42:57.789Z,28
2022-07-29T19:48:03.659Z,27.8
2022-07-29T19:53:06.169Z,27.8
2022-07-29T19:58:10.452Z,27.5
2022-07-29T20:03:13.670Z,27.3
2022-07-29T20:08:16.571Z,27.2
2022-07-29T20:13:19.340Z,27
2022-07-29T20:23:22.509Z,26.8
2022-07-29T20:28:24.815Z,26.6
2022-07-29T20:33:27.167Z,26.6
2022-07-29T20:38:30.016Z,26.5
2022-07-29T20:43:40.468Z,26.3
2022-07-29T20:48:32.763Z,26.3
2022-07-29T20:53:35.129Z,26.2
2022-07-29T20:58:37.833Z,26
2022-07-29T21:03:40.190Z,26
2022-07-29T21:08:42.490Z,26
2022-07-29T21:13:44.885Z,25.9
2022-07-29T21:18:47.758Z,25.8
2022-07-29T21:23:51.609Z,25.7
2022-07-29T21:28:57.792Z,25.7
2022-07-29T21:34:00.860Z,25.6
2022-07-29T21:39:03.798Z,25.5
2022-07-29T21:44:06.278Z,25.5
2022-07-29T21:49:10.152Z,25.4
2022-07-29T21:54:14.403Z,25.3
2022-07-29T21:59:17.263Z,25.2
2022-07-29T22:04:20.184Z,25.1
2022-07-29T22:09:23.044Z,25.1
2022-07-29T22:14:27.501Z,25.1
2022-07-29T22:19:32.357Z,25
2022-07-29T22:24:35.035Z,25
2022-07-29T22:29:37.538Z,25
2022-07-29T22:34:40.396Z,24.9
2022-07-29T22:39:42.858Z,24.8
2022-07-29T22:44:45.421Z,24.8
2022-07-29T22:49:48.438Z,24.8
2022-07-29T22:54:50.771Z,24.7
2022-07-29T22:59:53.659Z,24.7
2022-07-29T23:04:56.576Z,24.6
2022-07-29T23:10:01.033Z,24.6
2022-07-29T23:15:06.679Z,24.5
2022-07-29T23:20:11.066Z,24.3
2022-07-29T23:25:17.184Z,24.3
2022-07-29T23:30:19.796Z,24.1
2022-07-29T23:35:23.271Z,23.6
2022-07-29T23:40:26.099Z,23.5
2022-07-29T23:45:49.997Z,23.4
2022-07-29T23:50:29.903Z,23.4
2022-07-29T23:55:40.862Z,23.4
